createdAt,value
2023-04-19T00:02:16.951Z,45.85
2023-04-19T00:07:21.446Z,45.98
2023-04-19T00:12:23.924Z,45.37
2023-04-19T00:17:27.558Z,45.84
2023-04-19T00:22:31.103Z,46.05
2023-04-19T00:27:33.527Z,44.85
2023-04-19T00:32:36.511Z,44.62
2023-04-19T00:37:38.881Z,44.09
2023-04-19T00:42:42.358Z,44.25
2023-04-19T00:47:47.650Z,43.95
2023-04-19T00:52:52.279Z,44.39
2023-04-19T00:57:54.892Z,44.60
2023-04-19T01:02:57.468Z,44.01
2023-04-19T01:08:02.087Z,44.06
2023-04-19T01:13:04.472Z,43.98
2023-04-19T01:18:07.588Z,44.44
2023-04-19T01:23:12.263Z,44.37
2023-04-19T01:28:14.704Z,43.63
2023-04-19T01:33:18.287Z,43.95
2023-04-19T01:38:21.145Z,43.99
2023-04-19T01:43:24.035Z,43.62
2023-04-19T01:48:27.550Z,43.59
2023-04-19T01:53:30.531Z,43.01
2023-04-19T01:58:33.435Z,44.01
2023-04-19T02:03:36.225Z,44.18
2023-04-19T02:08:40.105Z,44.69
2023-04-19T02:13:43.425Z,44.63
2023-04-19T02:18:47.048Z,44.21
2023-04-19T02:23:49.506Z,43.97
2023-04-19T02:28:53.128Z,44.32
2023-04-19T02:33:56.046Z,43.87
2023-04-19T02:39:00.114Z,44.34
2023-04-19T02:44:02.911Z,44.66
2023-04-19T02:49:07.280Z,44.00
2023-04-19T02:54:10.059Z,44.65
2023-04-19T02:59:13.900Z,43.68
2023-04-19T03:04:17.506Z,44.13
2023-04-19T03:09:20.773Z,43.92
2023-04-19T03:14:24.295Z,44.67
2023-04-19T03:19:29.212Z,43.54
2023-04-19T03:24:32.012Z,43.94
2023-04-19T03:29:48.796Z,43.83
2023-04-19T03:34:51.868Z,43.79
2023-04-19T03:39:54.330Z,43.91
2023-04-19T03:45:06.209Z,44.53
2023-04-19T03:50:13.784Z,44.48
2023-04-19T03:55:19.839Z,44.37
2023-04-19T04:00:23.146Z,44.39
2023-04-19T04:05:31.597Z,44.82
2023-04-19T04:10:36.038Z,44.59
2023-04-19T04:15:39.724Z,43.95
2023-04-19T04:20:46.047Z,44.73
2023-04-19T04:25:58.265Z,44.96
2023-04-19T04:31:03.661Z,44.91
2023-04-19T04:36:12.762Z,44.83
2023-04-19T04:41:17.190Z,44.87
2023-04-19T04:46:20.301Z,44.67
2023-04-19T04:51:22.918Z,44.59
2023-04-19T04:56:29.536Z,44.49
2023-04-19T05:01:32.728Z,45.18
2023-04-19T05:06:37.904Z,45.02
2023-04-19T05:11:41.572Z,44.67
2023-04-19T05:16:44.983Z,44.49
2023-04-19T05:21:48.728Z,43.81
2023-04-19T05:26:53.258Z,44.32
2023-04-19T05:31:58.329Z,43.16
2023-04-19T05:37:25.976Z,43.03
2023-04-19T05:42:32.955Z,42.46
2023-04-19T05:47:37.984Z,42.04
2023-04-19T05:52:58.980Z,41.31
2023-04-19T05:58:01.531Z,41.32
2023-04-19T06:03:05.845Z,40.32
2023-04-19T06:08:16.696Z,40.43
2023-04-19T06:13:20.191Z,39.71
2023-04-19T06:18:22.908Z,39.77
2023-04-19T06:23:27.181Z,39.05
2023-04-19T06:28:30.891Z,38.81
2023-04-19T06:33:33.275Z,38.76
2023-04-19T06:38:36.557Z,38.15
2023-04-19T06:43:42.944Z,36.88
2023-04-19T06:48:45.358Z,36.42
2023-04-19T06:53:47.797Z,35.12
2023-04-19T06:58:50.212Z,35.95
2023-04-19T07:03:53.948Z,34.32
2023-04-19T07:08:58.320Z,33.60
2023-04-19T07:14:01.361Z,32.33
2023-04-19T07:19:03.953Z,31.43
2023-04-19T07:24:09.063Z,32.63
2023-04-19T07:29:13.979Z,32.63
2023-04-19T07:34:17.146Z,33.03
2023-04-19T07:39:20.282Z,32.46
2023-04-19T07:44:22.648Z,32.74
2023-04-19T07:49:26.132Z,32.82
2023-04-19T07:54:30.626Z,33.02
2023-04-19T07:59:33.713Z,29.82
2023-04-19T08:04:37.557Z,29.05
2023-04-19T08:09:40.731Z,29.17
2023-04-19T08:14:56.045Z,28.70
2023-04-19T08:20:03.948Z,28.68
2023-04-19T08:25:08.229Z,28.14
2023-04-19T08:30:11.547Z,27.19
2023-04-19T08:35:15.322Z,26.70
2023-04-19T08:40:18.744Z,26.15
2023-04-19T08:45:31.144Z,26.17
2023-04-19T08:50:48.433Z,26.30
2023-04-19T09:01:06.287Z,25.77
2023-04-19T09:06:09.029Z,24.94
2023-04-19T09:11:11.683Z,25.60
2023-04-19T09:16:37.779Z,25.71
2023-04-19T09:21:40.683Z,25.60
2023-04-19T09:26:55.941Z,25.48
2023-04-19T09:32:00.508Z,24.71
2023-04-19T09:37:24.879Z,24.79
2023-04-19T09:48:08.101Z,24.66
2023-04-19T09:53:11.216Z,24.50
2023-04-19T09:58:14.847Z,22.28
2023-04-19T10:03:22.374Z,22.34
2023-04-19T10:08:29.044Z,21.63
2023-04-19T10:13:33.219Z,21.67
2023-04-19T10:18:36.638Z,22.02
2023-04-19T10:23:40.057Z,22.69
2023-04-19T10:28:42.866Z,22.38
2023-04-19T10:33:45.311Z,22.71
2023-04-19T10:38:53.118Z,22.84
2023-04-19T10:43:55.427Z,22.77
2023-04-19T10:49:00.036Z,23.04
2023-04-19T10:54:07.574Z,23.12
2023-04-19T10:59:22.170Z,22.23
2023-04-19T11:04:30.899Z,21.18
2023-04-19T11:09:35.764Z,20.45
2023-04-19T11:14:54.191Z,21.14
2023-04-19T11:20:07.785Z,20.71
2023-04-19T11:25:31.805Z,20.95
2023-04-19T11:30:35.072Z,20.74
2023-04-19T11:35:38.001Z,20.68
2023-04-19T11:40:41.384Z,20.62
2023-04-19T11:45:44.182Z,20.87
2023-04-19T11:50:49.740Z,20.87
2023-04-19T11:55:59.404Z,20.82
2023-04-19T12:01:29.721Z,21.28
2023-04-19T12:06:32.759Z,20.81
2023-04-19T12:11:47.374Z,20.83
2023-04-19T12:17:11.978Z,20.89
2023-04-19T12:22:15.891Z,21.19
2023-04-19T12:27:18.526Z,20.66
2023-04-19T12:32:21.116Z,21.11
2023-04-19T12:37:23.850Z,21.01
2023-04-19T12:42:27.660Z,21.18
2023-04-19T12:47:31.844Z,21.03
2023-04-19T12:52:35.267Z,20.80
2023-04-19T12:57:38.534Z,20.86
2023-04-19T13:02:42.114Z,21.10
2023-04-19T13:07:44.925Z,21.02
2023-04-19T13:12:47.267Z,21.17
2023-04-19T13:17:50.997Z,20.70
2023-04-19T13:22:53.891Z,21.56
2023-04-19T13:27:57.752Z,21.31
2023-04-19T13:33:02.068Z,21.39
2023-04-19T13:38:04.997Z,21.40
2023-04-19T13:43:10.060Z,21.82
2023-04-19T13:48:15.486Z,22.53
2023-04-19T13:53:18.118Z,22.22
2023-04-19T13:58:20.565Z,21.96
2023-04-19T14:03:24.771Z,22.05
2023-04-19T14:08:27.751Z,22.12
2023-04-19T14:13:31.270Z,22.92
2023-04-19T14:18:34.475Z,22.55
2023-04-19T14:23:37.356Z,22.90
2023-04-19T14:28:40.202Z,23.29
2023-04-19T14:33:44.043Z,23.56
2023-04-19T14:38:46.463Z,23.58
2023-04-19T14:43:48.944Z,24.01
2023-04-19T14:48:51.849Z,24.21
2023-04-19T14:53:54.233Z,24.49
2023-04-19T14:58:57.655Z,24.69
2023-04-19T15:04:01.344Z,24.49
2023-04-19T15:09:05.556Z,25.00
2023-04-19T15:14:11.495Z,25.12
2023-04-19T15:19:15.074Z,25.14
2023-04-19T15:24:17.819Z,25.84
2023-04-19T15:29:21.029Z,26.12
2023-04-19T15:34:23.429Z,25.94
2023-04-19T15:39:26.041Z,26.45
2023-04-19T15:44:28.573Z,26.22
2023-04-19T15:49:31.506Z,26.13
2023-04-19T15:54:33.868Z,26.67
2023-04-19T15:59:36.300Z,26.71
2023-04-19T16:04:38.920Z,26.88
2023-04-19T16:09:41.435Z,26.23
2023-04-19T16:14:43.722Z,25.88
2023-04-19T16:19:46.188Z,26.12
2023-04-19T16:24:49.645Z,26.08
2023-04-19T16:29:51.977Z,27.43
2023-04-19T16:34:54.299Z,27.72
2023-04-19T16:40:08.668Z,27.34
2023-04-19T16:45:11.445Z,27.39
2023-04-19T16:50:14.662Z,27.17
2023-04-19T16:55:17.212Z,27.21
2023-04-19T17:00:22.128Z,27.00
2023-04-19T17:05:25.596Z,26.61
2023-04-19T17:10:28.660Z,26.36
2023-04-19T17:15:32.117Z,26.51
2023-04-19T17:20:34.978Z,26.57
2023-04-19T17:25:37.407Z,26.25
2023-04-19T17:30:40.385Z,26.51
2023-04-19T17:35:43.133Z,26.99
2023-04-19T17:40:45.582Z,27.44
2023-04-19T17:45:47.909Z,28.24
2023-04-19T17:50:50.122Z,28.79
2023-04-19T17:55:52.529Z,28.93
2023-04-19T18:00:54.872Z,29.57
2023-04-19T18:05:57.698Z,29.83
2023-04-19T18:11:00.134Z,29.67
2023-04-19T18:16:03.770Z,29.41
2023-04-19T18:21:07.001Z,29.45
2023-04-19T18:26:09.548Z,29.97
2023-04-19T18:31:12.415Z,29.59
2023-04-19T18:36:14.778Z,30.03
2023-04-19T18:41:17.823Z,29.79
2023-04-19T18:46:21.828Z,29.52
2023-04-19T18:51:24.680Z,29.32
2023-04-19T18:57:03.840Z,29.42
2023-04-19T19:01:51.027Z,29.71
2023-04-19T19:06:53.887Z,29.40
2023-04-19T19:11:57.021Z,29.08
2023-04-19T19:16:59.781Z,29.48
2023-04-19T19:22:03.291Z,29.66
2023-04-19T19:27:06.011Z,29.74
2023-04-19T19:32:09.952Z,30.22
2023-04-19T19:37:12.748Z,30.36
2023-04-19T19:42:19.022Z,30.30
2023-04-19T19:47:22.255Z,30.24
2023-04-19T19:52:27.403Z,30.76
2023-04-19T19:58:16.403Z,31.06
2023-04-19T20:02:56.843Z,31.25
2023-04-19T20:08:08.494Z,31.64
2023-04-19T20:13:13.476Z,31.94
2023-04-19T20:18:17.763Z,32.03
2023-04-19T20:23:21.945Z,31.86
2023-04-19T20:28:26.249Z,32.11
2023-04-19T20:33:28.739Z,32.65
2023-04-19T20:38:32.308Z,32.53
2023-04-19T20:43:34.812Z,33.70
2023-04-19T20:48:38.181Z,34.00
2023-04-19T20:53:40.753Z,33.79
2023-04-19T20:58:43.593Z,33.58
2023-04-19T21:03:46.784Z,33.05
2023-04-19T21:08:49.922Z,34.02
2023-04-19T21:13:52.807Z,33.24
2023-04-19T21:18:56.003Z,33.41
2023-04-19T21:23:58.808Z,33.42
2023-04-19T21:29:01.718Z,33.51
2023-04-19T21:34:04.691Z,32.84
2023-04-19T21:39:07.194Z,33.18
2023-04-19T21:44:10.627Z,32.54
2023-04-19T21:49:13.635Z,33.08
2023-04-19T21:54:23.380Z,33.31
2023-04-19T21:59:35.970Z,32.86
2023-04-19T22:04:39.703Z,33.17
2023-04-19T22:09:42.880Z,32.95
2023-04-19T22:14:45.134Z,32.86
2023-04-19T22:19:48.786Z,33.16
2023-04-19T22:24:56.734Z,33.02
2023-04-19T22:30:00.486Z,33.61
2023-04-19T22:35:03.150Z,33.28
2023-04-19T22:40:07.029Z,33.96
2023-04-19T22:45:10.562Z,34.19
2023-04-19T22:50:13.168Z,34.46
2023-04-19T22:55:15.616Z,34.09
2023-04-19T23:00:18.380Z,34.24
2023-04-19T23:05:20.712Z,34.45
2023-04-19T23:10:24.626Z,34.78
2023-04-19T23:15:29.593Z,35.30
2023-04-19T23:20:32.400Z,35.01
2023-04-19T23:25:34.949Z,34.46
2023-04-19T23:30:37.340Z,34.82
2023-04-19T23:35:39.840Z,34.23
2023-04-19T23:40:42.296Z,34.05
2023-04-19T23:45:45.128Z,34.86
2023-04-19T23:50:47.667Z,35.08
2023-04-19T23:55:50.173Z,35.42
